createdAt,value
2017-09-24T00:00:57.660Z,14.82
2017-09-24T00:01:57.640Z,14.84
2017-09-24T00:02:57.009Z,14.84
2017-09-24T00:03:57.634Z,14.82
2017-09-24T00:04:57.609Z,14.7
2017-09-24T00:05:57.588Z,14.69
2017-09-24T00:06:57.552Z,14.73
2017-09-24T00:07:56.909Z,14.72
2017-09-24T00:08:57.520Z,14.75
2017-09-24T00:09:57.502Z,14.68
2017-09-24T00:10:57.498Z,14.77
2017-09-24T00:11:57.471Z,14.84
2017-09-24T00:12:57.443Z,14.84
2017-09-24T00:13:57.428Z,14.88
2017-09-24T00:14:57.094Z,14.8
2017-09-24T00:15:57.069Z,14.85
2017-09-24T00:16:57.050Z,14.88
2017-09-24T00:17:57.351Z,14.84
2017-09-24T00:18:57.329Z,14.84
2017-09-24T00:19:56.998Z,14.79
2017-09-24T00:20:56.979Z,14.84
2017-09-24T00:21:56.657Z,14.82
2017-09-24T00:22:56.632Z,14.75
2017-09-24T00:23:57.298Z,14.73
2017-09-24T00:24:57.211Z,14.82
2017-09-24T00:25:56.898Z,14.77
2017-09-24T00:26:57.187Z,14.82
2017-09-24T00:27:57.171Z,14.73
2017-09-24T00:28:57.140Z,14.77
2017-09-24T00:29:57.154Z,14.73
2017-09-24T00:30:57.116Z,14.75
2017-09-24T00:31:56.777Z,14.69
2017-09-24T00:32:57.072Z,14.7
2017-09-24T00:33:57.063Z,14.62
2017-09-24T00:34:57.046Z,14.7
2017-09-24T00:35:57.015Z,14.7
2017-09-24T00:36:56.990Z,14.66
2017-09-24T00:37:56.670Z,14.75
2017-09-24T00:38:56.981Z,14.8
2017-09-24T00:39:56.640Z,14.72
2017-09-24T00:40:56.615Z,14.85
2017-09-24T00:41:56.588Z,14.8
2017-09-24T00:42:56.587Z,14.87
2017-09-24T00:43:56.250Z,14.82
2017-09-24T00:44:56.858Z,14.88
2017-09-24T00:45:56.555Z,14.85
2017-09-24T00:46:56.197Z,14.72
2017-09-24T00:47:56.201Z,14.75
2017-09-24T00:48:56.777Z,14.79
2017-09-24T00:49:56.508Z,14.88
2017-09-24T00:50:56.439Z,14.82
2017-09-24T00:51:56.722Z,14.89
2017-09-24T00:52:56.459Z,14.91
2017-09-24T00:53:56.814Z,14.85
2017-09-24T00:54:56.778Z,14.77
2017-09-24T00:55:56.049Z,14.88
2017-09-24T00:56:56.631Z,14.88
2017-09-24T00:57:56.630Z,14.88
2017-09-24T00:58:56.289Z,14.91
2017-09-24T00:59:56.292Z,14.8
2017-09-24T01:00:56.649Z,14.87
2017-09-24T01:01:56.340Z,14.84
2017-09-24T01:02:55.907Z,14.72
2017-09-24T01:03:56.641Z,14.75
2017-09-24T01:04:56.298Z,14.87
2017-09-24T01:05:56.492Z,14.88
2017-09-24T01:06:56.258Z,14.75
2017-09-24T01:07:56.263Z,14.82
2017-09-24T01:08:56.527Z,14.87
2017-09-24T01:09:56.416Z,14.87
2017-09-24T01:10:56.074Z,14.85
2017-09-24T01:11:56.051Z,14.88
2017-09-24T01:12:56.034Z,14.95
2017-09-24T01:13:56.319Z,14.88
2017-09-24T01:14:56.104Z,14.96
2017-09-24T01:15:56.284Z,14.89
2017-09-24T01:16:56.038Z,14.84
2017-09-24T01:17:56.238Z,14.82
2017-09-24T01:18:55.917Z,14.88
2017-09-24T01:19:55.925Z,14.94
2017-09-24T01:20:55.928Z,14.89
2017-09-24T01:21:56.190Z,14.92
2017-09-24T01:22:56.269Z,14.85
2017-09-24T01:23:56.133Z,14.96
2017-09-24T01:24:56.128Z,14.84
2017-09-24T01:25:55.797Z,14.85
2017-09-24T01:26:55.777Z,14.8
2017-09-24T01:27:55.750Z,14.87
2017-09-24T01:28:56.057Z,14.92
2017-09-24T01:29:55.718Z,14.92
2017-09-24T01:30:55.708Z,14.94
2017-09-24T01:31:55.990Z,14.92
2017-09-24T01:32:56.008Z,14.95
2017-09-24T01:33:55.644Z,15
2017-09-24T01:34:55.656Z,14.95
2017-09-24T01:35:55.607Z,14.94
2017-09-24T01:36:55.588Z,14.95
2017-09-24T01:37:55.907Z,14.94
2017-09-24T01:38:55.546Z,15.02
2017-09-24T01:39:55.537Z,14.95
2017-09-24T01:40:55.824Z,15
2017-09-24T01:41:55.497Z,14.91
2017-09-24T01:42:55.787Z,14.98
2017-09-24T01:43:55.781Z,14.94
2017-09-24T01:44:55.435Z,14.84
2017-09-24T01:45:55.416Z,14.8
2017-09-24T01:46:55.416Z,14.89
2017-09-24T01:47:55.385Z,14.88
2017-09-24T01:48:55.058Z,14.85
2017-09-24T01:49:55.654Z,14.87
2017-09-24T01:50:55.328Z,14.88
2017-09-24T01:51:55.630Z,14.92
2017-09-24T01:52:55.298Z,14.82
2017-09-24T01:53:55.288Z,14.79
2017-09-24T01:54:55.282Z,14.88
2017-09-24T01:55:55.558Z,14.8
2017-09-24T01:56:55.527Z,14.85
2017-09-24T01:57:55.530Z,14.87
2017-09-24T01:58:55.189Z,14.82
2017-09-24T01:59:55.498Z,14.8
2017-09-24T02:00:55.458Z,14.87
2017-09-24T02:01:55.450Z,14.79
2017-09-24T02:02:55.429Z,14.73
2017-09-24T02:03:55.100Z,14.77
2017-09-24T02:04:55.398Z,14.7
2017-09-24T02:05:55.378Z,14.73
2017-09-24T02:06:55.059Z,14.82
2017-09-24T02:07:55.330Z,14.77
2017-09-24T02:08:55.010Z,14.72
2017-09-24T02:09:55.309Z,14.73
2017-09-24T02:10:55.288Z,14.75
2017-09-24T02:11:55.271Z,14.73
2017-09-24T02:12:55.258Z,14.68
2017-09-24T02:13:55.377Z,14.7
2017-09-24T02:14:55.195Z,14.7
2017-09-24T02:15:55.205Z,14.68
2017-09-24T02:16:55.171Z,14.6
2017-09-24T02:17:55.164Z,14.62
2017-09-24T02:18:55.133Z,14.62
2017-09-24T02:19:55.128Z,14.57
2017-09-24T02:20:55.107Z,14.57
2017-09-24T02:21:54.767Z,14.62
2017-09-24T02:22:55.069Z,14.6
2017-09-24T02:23:55.053Z,14.58
2017-09-24T02:24:54.726Z,14.54
2017-09-24T02:25:55.019Z,14.51
2017-09-24T02:26:54.686Z,14.5
2017-09-24T02:27:55.068Z,14.47
2017-09-24T02:28:54.679Z,14.38
2017-09-24T02:29:54.708Z,14.53
2017-09-24T02:30:54.610Z,14.4
2017-09-24T02:31:54.628Z,14.44
2017-09-24T02:32:54.256Z,14.42
2017-09-24T02:33:54.865Z,14.46
2017-09-24T02:34:54.537Z,14.44
2017-09-24T02:35:54.241Z,14.5
2017-09-24T02:36:54.492Z,14.54
2017-09-24T02:37:54.508Z,14.47
2017-09-24T02:38:54.909Z,14.57
2017-09-24T02:39:54.745Z,14.4
2017-09-24T02:40:54.746Z,14.57
2017-09-24T02:41:54.399Z,14.46
2017-09-24T02:42:54.380Z,14.4
2017-09-24T02:43:54.676Z,14.54
2017-09-24T02:44:54.724Z,14.51
2017-09-24T02:45:54.328Z,14.54
2017-09-24T02:46:54.634Z,14.5
2017-09-24T02:47:54.604Z,14.51
2017-09-24T02:48:54.722Z,14.4
2017-09-24T02:49:54.653Z,14.44
2017-09-24T02:50:54.618Z,14.42
2017-09-24T02:51:54.218Z,14.53
2017-09-24T02:52:54.570Z,14.51
2017-09-24T02:53:54.187Z,14.4
2017-09-24T02:54:53.853Z,14.47
2017-09-24T02:55:54.545Z,14.42
2017-09-24T02:56:54.139Z,14.5
2017-09-24T02:57:53.797Z,14.44
2017-09-24T02:58:54.422Z,14.47
2017-09-24T02:59:54.448Z,14.39
2017-09-24T03:00:54.369Z,14.46
2017-09-24T03:01:54.024Z,14.48
2017-09-24T03:02:54.319Z,14.51
2017-09-24T03:03:54.403Z,14.6
2017-09-24T03:04:53.986Z,14.39
2017-09-24T03:05:53.954Z,14.44
2017-09-24T03:06:53.959Z,14.5
2017-09-24T03:07:53.919Z,14.4
2017-09-24T03:08:54.245Z,14.38
2017-09-24T03:09:53.890Z,14.33
2017-09-24T03:10:54.163Z,14.36
2017-09-24T03:11:54.167Z,14.38
2017-09-24T03:12:54.136Z,14.46
2017-09-24T03:13:53.810Z,14.38
2017-09-24T03:14:53.791Z,14.4
2017-09-24T03:15:53.768Z,14.39
2017-09-24T03:16:54.083Z,14.4
2017-09-24T03:17:54.038Z,14.55
2017-09-24T03:18:54.018Z,14.46
2017-09-24T03:19:53.698Z,14.54
2017-09-24T03:20:53.676Z,14.57
2017-09-24T03:21:53.959Z,14.62
2017-09-24T03:22:53.962Z,14.57
2017-09-24T03:23:53.936Z,14.62
2017-09-24T03:24:53.608Z,14.62
2017-09-24T03:25:53.578Z,14.57
2017-09-24T03:26:53.921Z,14.57
2017-09-24T03:27:53.904Z,14.54
2017-09-24T03:28:53.839Z,14.55
2017-09-24T03:29:53.529Z,14.51
2017-09-24T03:30:53.499Z,14.6
2017-09-24T03:31:53.790Z,14.51
2017-09-24T03:32:53.778Z,14.47
2017-09-24T03:33:53.428Z,14.57
2017-09-24T03:34:53.737Z,14.5
2017-09-24T03:35:53.089Z,14.57
2017-09-24T03:36:53.697Z,14.48
2017-09-24T03:37:53.371Z,14.44
2017-09-24T03:38:53.650Z,14.42
2017-09-24T03:39:53.019Z,14.36
2017-09-24T03:40:53.006Z,14.57
2017-09-24T03:41:53.291Z,14.51
2017-09-24T03:42:53.271Z,14.4
2017-09-24T03:43:53.570Z,14.47
2017-09-24T03:44:53.259Z,14.47
2017-09-24T03:45:52.958Z,14.42
2017-09-24T03:46:52.890Z,14.48
2017-09-24T03:47:52.920Z,14.42
2017-09-24T03:48:53.481Z,14.5
2017-09-24T03:49:53.277Z,14.4
2017-09-24T03:50:53.135Z,14.5
2017-09-24T03:51:53.117Z,14.44
2017-09-24T03:52:53.409Z,14.5
2017-09-24T03:53:53.393Z,14.46
2017-09-24T03:54:53.360Z,14.51
2017-09-24T03:55:53.346Z,14.47
2017-09-24T03:56:52.720Z,14.47
2017-09-24T03:57:53.308Z,14.44
2017-09-24T03:58:52.971Z,14.38
2017-09-24T03:59:53.277Z,14.35
2017-09-24T04:00:52.938Z,14.4
2017-09-24T04:01:52.926Z,14.38
2017-09-24T04:02:53.217Z,14.38
2017-09-24T04:03:52.898Z,14.35
2017-09-24T04:04:52.870Z,14.35
2017-09-24T04:05:53.167Z,14.46
2017-09-24T04:06:53.148Z,14.47
2017-09-24T04:07:52.809Z,14.4
2017-09-24T04:08:53.108Z,14.47
2017-09-24T04:09:52.819Z,14.54
2017-09-24T04:10:52.769Z,14.47
2017-09-24T04:11:52.737Z,14.48
2017-09-24T04:12:53.059Z,14.54
2017-09-24T04:13:52.762Z,14.62
2017-09-24T04:14:52.691Z,14.63
2017-09-24T04:15:53.024Z,14.58
2017-09-24T04:16:53.010Z,14.58
2017-09-24T04:17:52.978Z,14.58
2017-09-24T04:18:52.962Z,14.57
2017-09-24T04:19:52.646Z,14.63
2017-09-24T04:20:52.917Z,14.6
2017-09-24T04:21:52.880Z,14.54
2017-09-24T04:22:52.851Z,14.57
2017-09-24T04:23:52.909Z,14.54
2017-09-24T04:24:52.491Z,14.5
2017-09-24T04:25:52.794Z,14.54
2017-09-24T04:26:52.778Z,14.51
2017-09-24T04:27:52.430Z,14.58
2017-09-24T04:28:52.431Z,14.63
2017-09-24T04:29:52.730Z,14.48
2017-09-24T04:30:52.701Z,14.58
2017-09-24T04:31:52.681Z,14.53
2017-09-24T04:32:52.660Z,14.5
2017-09-24T04:33:52.018Z,14.5
2017-09-24T04:34:52.622Z,14.47
2017-09-24T04:35:52.618Z,14.57
2017-09-24T04:36:52.279Z,14.5
2017-09-24T04:37:52.569Z,14.46
2017-09-24T04:38:52.606Z,14.48
2017-09-24T04:39:52.229Z,14.54
2017-09-24T04:40:52.200Z,14.5
2017-09-24T04:41:52.181Z,14.47
2017-09-24T04:42:52.558Z,14.5
2017-09-24T04:43:51.831Z,14.57
2017-09-24T04:44:52.229Z,14.51
2017-09-24T04:45:52.421Z,14.48
2017-09-24T04:46:52.408Z,14.58
2017-09-24T04:47:52.371Z,14.44
2017-09-24T04:48:52.063Z,14.51
2017-09-24T04:49:52.037Z,14.5
2017-09-24T04:50:52.317Z,14.55
2017-09-24T04:51:52.319Z,14.6
2017-09-24T04:52:52.290Z,14.54
2017-09-24T04:53:52.289Z,14.4
2017-09-24T04:54:52.259Z,14.4
2017-09-24T04:55:52.239Z,14.39
2017-09-24T04:56:52.218Z,14.35
2017-09-24T04:57:52.240Z,14.35
2017-09-24T04:58:51.860Z,14.35
2017-09-24T04:59:51.859Z,14.46
2017-09-24T05:00:51.523Z,14.44
2017-09-24T05:01:51.502Z,14.38
2017-09-24T05:02:52.109Z,14.48
2017-09-24T05:03:52.089Z,14.39
2017-09-24T05:04:52.066Z,14.44
2017-09-24T05:05:52.051Z,14.4
2017-09-24T05:06:52.032Z,14.42
2017-09-24T05:07:51.696Z,14.38
2017-09-24T05:08:51.681Z,14.5
2017-09-24T05:09:51.974Z,14.47
2017-09-24T05:10:51.968Z,14.46
2017-09-24T05:11:51.938Z,14.48
2017-09-24T05:12:51.610Z,14.44
2017-09-24T05:13:51.900Z,14.46
2017-09-24T05:14:51.569Z,14.5
2017-09-24T05:15:51.869Z,14.42
2017-09-24T05:16:51.529Z,14.36
2017-09-24T05:17:51.519Z,14.38
2017-09-24T05:18:51.497Z,14.29
2017-09-24T05:19:51.789Z,14.21
2017-09-24T05:20:51.766Z,14.28
2017-09-24T05:21:51.450Z,14.25
2017-09-24T05:22:51.418Z,14.25
2017-09-24T05:23:51.709Z,14.2
2017-09-24T05:24:51.691Z,14.17
2017-09-24T05:25:51.678Z,14.18
2017-09-24T05:26:51.647Z,14.21
2017-09-24T05:27:51.632Z,14.25
2017-09-24T05:28:51.314Z,14.29
2017-09-24T05:29:51.607Z,14.29
2017-09-24T05:30:51.749Z,14.26
2017-09-24T05:31:51.250Z,14.28
2017-09-24T05:32:51.241Z,14.25
2017-09-24T05:33:51.222Z,14.2
2017-09-24T05:34:51.199Z,14.35
2017-09-24T05:35:51.178Z,14.38
2017-09-24T05:36:51.479Z,14.39
2017-09-24T05:37:51.454Z,14.29
2017-09-24T05:38:51.428Z,14.29
2017-09-24T05:39:51.120Z,14.26
2017-09-24T05:40:51.101Z,14.35
2017-09-24T05:41:51.370Z,14.38
2017-09-24T05:42:51.050Z,14.38
2017-09-24T05:43:51.052Z,14.39
2017-09-24T05:44:51.345Z,14.32
2017-09-24T05:45:51.318Z,14.33
2017-09-24T05:46:51.299Z,14.44
2017-09-24T05:47:51.269Z,14.44
2017-09-24T05:48:51.010Z,14.44
2017-09-24T05:49:50.599Z,14.44
2017-09-24T05:50:50.916Z,14.42
2017-09-24T05:51:51.199Z,14.51
2017-09-24T05:52:50.659Z,14.53
2017-09-24T05:53:51.157Z,14.44
2017-09-24T05:54:50.835Z,14.46
2017-09-24T05:55:51.138Z,14.42
2017-09-24T05:56:50.849Z,14.33
2017-09-24T05:57:51.092Z,14.39
2017-09-24T05:58:50.759Z,14.33
2017-09-24T05:59:50.741Z,14.32
2017-09-24T06:00:50.712Z,14.38
2017-09-24T06:01:50.692Z,14.33
2017-09-24T06:02:51.001Z,14.3
2017-09-24T06:03:50.970Z,14.42
2017-09-24T06:04:51.020Z,14.47
2017-09-24T06:05:50.328Z,14.38
2017-09-24T06:06:50.919Z,14.44
2017-09-24T06:07:50.593Z,14.44
2017-09-24T06:08:50.922Z,14.33
2017-09-24T06:09:50.875Z,14.44
2017-09-24T06:10:50.543Z,14.46
2017-09-24T06:11:50.544Z,14.47
2017-09-24T06:12:50.812Z,14.42
2017-09-24T06:13:50.172Z,14.44
2017-09-24T06:14:50.796Z,14.4
2017-09-24T06:15:50.446Z,14.51
2017-09-24T06:16:50.769Z,14.42
2017-09-24T06:17:50.410Z,14.51
2017-09-24T06:18:50.401Z,14.44
2017-09-24T06:19:50.364Z,14.5
2017-09-24T06:20:50.050Z,14.51
2017-09-24T06:21:50.353Z,14.5
2017-09-24T06:22:50.619Z,14.4
2017-09-24T06:23:50.300Z,14.35
2017-09-24T06:24:50.382Z,14.33
2017-09-24T06:25:50.576Z,14.46
2017-09-24T06:26:50.572Z,14.36
2017-09-24T06:27:50.224Z,14.36
2017-09-24T06:28:50.512Z,14.35
2017-09-24T06:29:50.516Z,14.36
2017-09-24T06:30:50.496Z,14.4
2017-09-24T06:31:50.470Z,14.54
2017-09-24T06:32:50.431Z,14.46
2017-09-24T06:33:50.109Z,14.4
2017-09-24T06:34:50.401Z,14.47
2017-09-24T06:35:50.431Z,14.5
2017-09-24T06:36:50.361Z,14.48
2017-09-24T06:37:50.359Z,14.57
2017-09-24T06:38:50.343Z,14.6
2017-09-24T06:39:50.324Z,14.55
2017-09-24T06:40:50.300Z,14.63
2017-09-24T06:41:50.276Z,14.63
2017-09-24T06:42:50.260Z,14.57
2017-09-24T06:43:50.241Z,14.58
2017-09-24T06:44:49.914Z,14.62
2017-09-24T06:45:50.273Z,14.53
2017-09-24T06:46:49.868Z,14.54
2017-09-24T06:47:49.860Z,14.57
2017-09-24T06:48:50.144Z,14.5
2017-09-24T06:49:49.820Z,14.54
2017-09-24T06:50:49.788Z,14.51
2017-09-24T06:51:50.104Z,14.51
2017-09-24T06:52:49.771Z,14.57
2017-09-24T06:53:49.741Z,14.68
2017-09-24T06:54:50.041Z,14.69
2017-09-24T06:55:50.017Z,14.66
2017-09-24T06:56:49.998Z,14.69
2017-09-24T06:57:49.980Z,14.72
2017-09-24T06:58:49.968Z,14.8
2017-09-24T06:59:49.950Z,14.82
2017-09-24T07:00:49.931Z,14.84
2017-09-24T07:01:49.282Z,14.85
2017-09-24T07:02:49.586Z,14.8
2017-09-24T07:03:49.872Z,14.8
2017-09-24T07:04:49.542Z,14.88
2017-09-24T07:05:49.830Z,14.89
2017-09-24T07:06:49.820Z,14.85
2017-09-24T07:07:49.483Z,14.87
2017-09-24T07:08:49.473Z,14.85
2017-09-24T07:09:49.159Z,14.94
2017-09-24T07:10:49.750Z,14.91
2017-09-24T07:11:49.735Z,14.94
2017-09-24T07:12:49.702Z,14.92
2017-09-24T07:13:49.371Z,15.09
2017-09-24T07:14:49.669Z,15.06
2017-09-24T07:15:49.339Z,15.07
2017-09-24T07:16:49.636Z,15.02
2017-09-24T07:17:49.622Z,15.03
2017-09-24T07:18:49.287Z,15.09
2017-09-24T07:19:49.262Z,15.07
2017-09-24T07:20:48.991Z,15.1
2017-09-24T07:21:49.551Z,15.21
2017-09-24T07:22:49.528Z,15.17
2017-09-24T07:23:49.232Z,15.25
2017-09-24T07:24:49.488Z,15.16
2017-09-24T07:25:48.847Z,15.24
2017-09-24T07:26:49.273Z,15.27
2017-09-24T07:27:49.448Z,15.28
2017-09-24T07:28:49.411Z,15.4
2017-09-24T07:29:49.119Z,15.5
2017-09-24T07:30:49.382Z,15.49
2017-09-24T07:31:49.363Z,15.49
2017-09-24T07:32:49.345Z,15.52
2017-09-24T07:33:49.011Z,15.5
2017-09-24T07:34:49.305Z,15.49
2017-09-24T07:35:49.345Z,15.52
2017-09-24T07:36:49.307Z,15.52
2017-09-24T07:37:48.642Z,15.54
2017-09-24T07:38:49.237Z,15.58
2017-09-24T07:39:48.921Z,15.61
2017-09-24T07:40:49.204Z,15.53
2017-09-24T07:41:48.572Z,15.53
2017-09-24T07:42:49.175Z,15.46
2017-09-24T07:43:48.845Z,15.46
2017-09-24T07:44:49.128Z,15.47
2017-09-24T07:45:49.123Z,15.43
2017-09-24T07:46:49.101Z,15.52
2017-09-24T07:47:48.779Z,15.52
2017-09-24T07:48:48.858Z,15.52
2017-09-24T07:49:49.064Z,15.47
2017-09-24T07:50:48.409Z,15.64
2017-09-24T07:51:48.699Z,15.54
2017-09-24T07:52:49.006Z,15.53
2017-09-24T07:53:48.670Z,15.57
2017-09-24T07:54:48.960Z,15.57
2017-09-24T07:55:48.641Z,15.62
2017-09-24T07:56:48.943Z,15.75
2017-09-24T07:57:48.609Z,15.72
2017-09-24T07:58:48.889Z,15.76
2017-09-24T07:59:48.250Z,15.79
2017-09-24T08:00:48.540Z,15.83
2017-09-24T08:01:48.541Z,15.85
2017-09-24T08:02:48.519Z,15.83
2017-09-24T08:03:48.479Z,15.82
2017-09-24T08:04:48.779Z,15.98
2017-09-24T08:05:48.450Z,15.92
2017-09-24T08:06:48.780Z,15.97
2017-09-24T08:07:48.739Z,16.01
2017-09-24T08:08:48.090Z,16.04
2017-09-24T08:09:48.492Z,16.08
2017-09-24T08:10:48.670Z,16.2
2017-09-24T08:11:48.673Z,16.17
2017-09-24T08:12:48.648Z,16.1
2017-09-24T08:13:48.647Z,16.15
2017-09-24T08:14:48.620Z,16.21
2017-09-24T08:15:48.374Z,16.23
2017-09-24T08:16:48.576Z,16.31
2017-09-24T08:17:48.578Z,16.34
2017-09-24T08:18:48.541Z,16.24
2017-09-24T08:19:48.519Z,16.28
2017-09-24T08:20:48.209Z,16.36
2017-09-24T08:21:48.500Z,16.28
2017-09-24T08:22:48.480Z,16.45
2017-09-24T08:23:48.471Z,16.46
2017-09-24T08:24:48.432Z,16.53
2017-09-24T08:25:48.125Z,16.58
2017-09-24T08:26:48.404Z,16.54
2017-09-24T08:27:48.089Z,16.57
2017-09-24T08:28:48.385Z,16.6
2017-09-24T08:29:48.049Z,16.56
2017-09-24T08:30:48.061Z,16.61
2017-09-24T08:31:48.329Z,16.61
2017-09-24T08:32:47.991Z,16.66
2017-09-24T08:33:48.314Z,16.72
2017-09-24T08:34:47.972Z,16.72
2017-09-24T08:35:47.951Z,16.76
2017-09-24T08:36:47.927Z,16.81
2017-09-24T08:37:48.241Z,16.82
2017-09-24T08:38:48.210Z,16.85
2017-09-24T08:39:48.209Z,16.89
2017-09-24T08:40:48.169Z,16.96
2017-09-24T08:41:47.864Z,16.98
2017-09-24T08:42:48.133Z,17.09
2017-09-24T08:43:48.136Z,16.98
2017-09-24T08:44:48.124Z,16.98
2017-09-24T08:45:48.092Z,17.08
2017-09-24T08:46:48.081Z,17.06
2017-09-24T08:47:48.084Z,17.11
2017-09-24T08:48:48.063Z,17.21
2017-09-24T08:49:48.051Z,17.18
2017-09-24T08:50:48.022Z,17.34
2017-09-24T08:51:47.686Z,17.42
2017-09-24T08:52:47.970Z,17.45
2017-09-24T08:53:47.974Z,17.44
2017-09-24T08:54:47.951Z,17.52
2017-09-24T08:55:47.932Z,17.58
2017-09-24T08:56:47.925Z,17.7
2017-09-24T08:57:47.954Z,17.74
2017-09-24T08:58:47.924Z,17.87
2017-09-24T08:59:47.864Z,17.86
2017-09-24T09:00:47.872Z,17.95
2017-09-24T09:01:47.852Z,18
2017-09-24T09:02:47.571Z,18.02
2017-09-24T09:03:47.495Z,18.14
2017-09-24T09:04:47.823Z,18.14
2017-09-24T09:05:47.460Z,18.12
2017-09-24T09:06:47.481Z,18.15
2017-09-24T09:07:47.427Z,18.11
2017-09-24T09:08:47.440Z,18.11
2017-09-24T09:09:47.720Z,17.92
2017-09-24T09:10:47.742Z,17.95
2017-09-24T09:11:47.378Z,18.1
2017-09-24T09:12:47.729Z,18.15
2017-09-24T09:13:47.666Z,18.2
2017-09-24T09:14:47.630Z,18.38
2017-09-24T09:15:47.628Z,18.47
2017-09-24T09:16:47.631Z,18.55
2017-09-24T09:17:47.602Z,18.75
2017-09-24T09:18:47.632Z,18.93
2017-09-24T09:19:47.551Z,18.95
2017-09-24T09:20:47.349Z,19.04
2017-09-24T09:21:46.911Z,19.16
2017-09-24T09:22:47.550Z,19.22
2017-09-24T09:23:47.250Z,19.26
2017-09-24T09:24:47.509Z,19.23
2017-09-24T09:25:47.491Z,19.19
2017-09-24T09:26:47.151Z,19.15
2017-09-24T09:27:47.140Z,19.12
2017-09-24T09:28:47.436Z,19.12
2017-09-24T09:29:47.435Z,18.96
2017-09-24T09:30:47.450Z,18.82
2017-09-24T09:31:47.090Z,18.88
2017-09-24T09:32:47.066Z,19.06
2017-09-24T09:33:47.461Z,19.16
2017-09-24T09:34:47.360Z,19.22
2017-09-24T09:35:47.351Z,19.19
2017-09-24T09:36:47.020Z,19.07
2017-09-24T09:37:47.333Z,19.06
2017-09-24T09:38:46.997Z,19.18
2017-09-24T09:39:47.289Z,19.23
2017-09-24T09:40:47.260Z,19.33
2017-09-24T09:41:46.996Z,19.31
2017-09-24T09:42:47.258Z,19.37
2017-09-24T09:43:47.283Z,19.41
2017-09-24T09:44:47.210Z,19.37
2017-09-24T09:45:47.189Z,19.59
2017-09-24T09:46:47.199Z,19.81
2017-09-24T09:47:47.185Z,19.95
2017-09-24T09:48:46.852Z,20.07
2017-09-24T09:49:47.139Z,20.28
2017-09-24T09:50:47.151Z,20.47
2017-09-24T09:51:47.120Z,20.84
2017-09-24T09:52:47.111Z,21.29
2017-09-24T09:53:47.101Z,21.47
2017-09-24T09:54:47.099Z,21.96
2017-09-24T09:55:47.072Z,22.14
2017-09-24T09:56:46.761Z,22.42
2017-09-24T09:57:47.041Z,22.76
2017-09-24T09:58:46.731Z,23.04
2017-09-24T09:59:47.037Z,23.29
2017-09-24T10:00:47.009Z,23.54
2017-09-24T10:01:46.689Z,23.77
2017-09-24T10:02:46.990Z,23.84
2017-09-24T10:03:46.691Z,23.62
2017-09-24T10:04:46.979Z,23.63
2017-09-24T10:05:46.654Z,23.65
2017-09-24T10:06:46.984Z,23.66
2017-09-24T10:07:46.969Z,23.87
2017-09-24T10:08:46.952Z,24.07
2017-09-24T10:09:46.919Z,23.82
2017-09-24T10:10:46.612Z,23.92
2017-09-24T10:11:46.910Z,23.89
2017-09-24T10:12:47.051Z,24.1
2017-09-24T10:13:46.570Z,24.33
2017-09-24T10:14:47.000Z,24.51
2017-09-24T10:15:46.897Z,24.62
2017-09-24T10:16:46.881Z,24.57
2017-09-24T10:17:46.881Z,24.58
2017-09-24T10:18:46.870Z,24.71
2017-09-24T10:19:46.530Z,24.66
2017-09-24T10:20:46.905Z,24.93
2017-09-24T10:21:46.839Z,25.12
2017-09-24T10:22:46.845Z,25.37
2017-09-24T10:23:46.832Z,25.48
2017-09-24T10:24:46.801Z,25.42
2017-09-24T10:25:46.787Z,25.55
2017-09-24T10:26:46.781Z,25.71
2017-09-24T10:27:46.161Z,25.77
2017-09-24T10:28:46.487Z,25.77
2017-09-24T10:29:46.461Z,25.79
2017-09-24T10:30:46.761Z,25.64
2017-09-24T10:31:46.752Z,25.39
2017-09-24T10:32:46.771Z,25.1
2017-09-24T10:33:46.430Z,24.8
2017-09-24T10:34:46.420Z,24.64
2017-09-24T10:35:46.418Z,24.62
2017-09-24T10:36:46.402Z,24.61
2017-09-24T10:37:46.710Z,24.77
2017-09-24T10:38:46.389Z,25
2017-09-24T10:39:46.695Z,25.03
2017-09-24T10:40:46.365Z,25.11
2017-09-24T10:41:46.045Z,25.27
2017-09-24T10:42:46.664Z,25.54
2017-09-24T10:43:46.653Z,25.56
2017-09-24T10:44:46.632Z,25.76
2017-09-24T10:45:46.319Z,25.74
2017-09-24T10:46:46.623Z,25.94
2017-09-24T10:47:46.612Z,26.11
2017-09-24T10:48:46.599Z,25.99
2017-09-24T10:49:45.973Z,25.99
2017-09-24T10:50:46.597Z,26.19
2017-09-24T10:51:46.570Z,26.33
2017-09-24T10:52:46.560Z,26.38
2017-09-24T10:53:46.562Z,26.32
2017-09-24T10:54:46.250Z,26.34
2017-09-24T10:55:46.253Z,26.2
2017-09-24T10:56:46.543Z,26.34
2017-09-24T10:57:46.206Z,26.41
2017-09-24T10:58:46.673Z,26.39
2017-09-24T10:59:46.543Z,26.42
2017-09-24T11:00:46.611Z,26.42
2017-09-24T11:01:46.511Z,26.48
2017-09-24T11:02:46.501Z,26.41
2017-09-24T11:03:46.476Z,26.49
2017-09-24T11:04:46.582Z,26.48
2017-09-24T11:05:46.154Z,26.44
2017-09-24T11:06:46.149Z,26.54
2017-09-24T11:07:46.431Z,26.52
2017-09-24T11:08:46.442Z,26.34
2017-09-24T11:09:46.109Z,25.86
2017-09-24T11:10:46.430Z,25.69
2017-09-24T11:11:45.788Z,25.47
2017-09-24T11:12:46.399Z,25.33
2017-09-24T11:13:46.410Z,25.12
2017-09-24T11:14:46.379Z,25.26
2017-09-24T11:15:46.402Z,25.36
2017-09-24T11:16:46.380Z,25.54
2017-09-24T11:17:46.371Z,25.51
2017-09-24T11:18:46.342Z,25.12
2017-09-24T11:19:46.029Z,25.07
2017-09-24T11:20:46.330Z,24.92
2017-09-24T11:21:45.996Z,24.9
2017-09-24T11:22:45.702Z,24.93
2017-09-24T11:23:45.977Z,24.69
2017-09-24T11:24:45.990Z,24.34
2017-09-24T11:25:46.280Z,24.24
2017-09-24T11:26:46.309Z,24.43
2017-09-24T11:27:46.266Z,24.51
2017-09-24T11:28:46.261Z,24.82
2017-09-24T11:29:46.236Z,25.08
2017-09-24T11:30:45.918Z,25.29
2017-09-24T11:31:46.211Z,25.33
2017-09-24T11:32:46.240Z,25.49
2017-09-24T11:33:45.889Z,25.55
2017-09-24T11:34:46.191Z,25.48
2017-09-24T11:35:45.876Z,25.62
2017-09-24T11:36:46.181Z,25.81
2017-09-24T11:37:46.171Z,25.79
2017-09-24T11:38:46.150Z,26.01
2017-09-24T11:39:45.839Z,26.19
2017-09-24T11:40:46.129Z,26.22
2017-09-24T11:41:45.849Z,26.23
2017-09-24T11:42:45.798Z,26.15
2017-09-24T11:43:46.108Z,26.33
2017-09-24T11:44:46.088Z,26.39
2017-09-24T11:45:45.790Z,26.3
2017-09-24T11:46:46.067Z,26.57
2017-09-24T11:47:45.879Z,26.69
2017-09-24T11:48:45.750Z,26.67
2017-09-24T11:49:46.098Z,26.44
2017-09-24T11:50:46.071Z,26.56
2017-09-24T11:51:45.740Z,26.64
2017-09-24T11:52:46.039Z,26.76
2017-09-24T11:53:45.485Z,26.75
2017-09-24T11:54:45.999Z,26.78
2017-09-24T11:55:45.702Z,26.86
2017-09-24T11:56:45.671Z,26.86
2017-09-24T11:57:45.978Z,26.79
2017-09-24T11:58:45.959Z,26.78
2017-09-24T11:59:45.955Z,26.85
2017-09-24T12:00:45.961Z,26.94
2017-09-24T12:01:45.328Z,26.86
2017-09-24T12:02:45.918Z,27
2017-09-24T12:03:45.623Z,27.09
2017-09-24T12:04:45.598Z,27.23
2017-09-24T12:05:45.911Z,27.28
2017-09-24T12:06:45.599Z,27.26
2017-09-24T12:07:45.571Z,27.22
2017-09-24T12:08:45.612Z,27.34
2017-09-24T12:09:45.885Z,27.25
2017-09-24T12:10:45.857Z,27.12
2017-09-24T12:11:45.841Z,27.22
2017-09-24T12:12:45.840Z,27.21
2017-09-24T12:13:45.840Z,27.38
2017-09-24T12:14:45.848Z,27.36
2017-09-24T12:15:45.509Z,27.43
2017-09-24T12:16:45.505Z,27.3
2017-09-24T12:17:45.792Z,27.18
2017-09-24T12:18:45.791Z,26.85
2017-09-24T12:19:45.807Z,26.82
2017-09-24T12:20:45.475Z,27.01
2017-09-24T12:21:45.471Z,27.09
2017-09-24T12:22:45.755Z,27.26
2017-09-24T12:23:45.761Z,27.19
2017-09-24T12:24:45.762Z,27.19
2017-09-24T12:25:45.739Z,27.21
2017-09-24T12:26:45.529Z,27.19
2017-09-24T12:27:45.719Z,27.12
2017-09-24T12:28:45.442Z,27.25
2017-09-24T12:29:45.700Z,27.41
2017-09-24T12:30:45.701Z,27.3
2017-09-24T12:31:45.671Z,27.25
2017-09-24T12:32:45.663Z,27.28
2017-09-24T12:33:45.808Z,27.37
2017-09-24T12:34:45.663Z,27.41
2017-09-24T12:35:45.316Z,27.43
2017-09-24T12:36:45.651Z,27.31
2017-09-24T12:37:45.750Z,27.4
2017-09-24T12:38:45.631Z,27.41
2017-09-24T12:39:45.624Z,27.48
2017-09-24T12:40:45.611Z,27.61
2017-09-24T12:41:45.699Z,27.19
2017-09-24T12:42:45.612Z,27
2017-09-24T12:43:45.276Z,26.79
2017-09-24T12:44:45.607Z,26.82
2017-09-24T12:45:44.940Z,26.76
2017-09-24T12:46:45.583Z,26.82
2017-09-24T12:47:45.552Z,27.01
2017-09-24T12:48:45.548Z,27.12
2017-09-24T12:49:45.529Z,27.01
2017-09-24T12:50:45.524Z,26.94
2017-09-24T12:51:45.514Z,26.85
2017-09-24T12:52:45.508Z,26.75
2017-09-24T12:53:45.414Z,26.84
2017-09-24T12:54:45.603Z,26.96
2017-09-24T12:55:45.487Z,27.22
2017-09-24T12:56:45.452Z,27.26